Time;durP1;ratioP1;P1;durP2;ratioP2;P2;SDS_P1;SDS_P2;PMS_P1;PMS_P2;Temp;Humidity;BMP_temperature;BMP_pressure;BME280_temperature;BME280_humidity;BME280_pressure;Samples;Min_cycle;Max_cycle;Signal;HPM_P1;HPM_P2
2023/04/28 00:01:13;;;;;;;0.00;0.00;;;12.40;99.60;;;;;;5090205;28;20287;-62
2023/04/28 00:03:38;;;;;;;0.00;0.00;;;12.50;99.40;;;;;;5090133;28;20200;-62
2023/04/28 00:06:04;;;;;;;0.00;0.00;;;12.50;97.60;;;;;;5090490;28;20222;-61
2023/04/28 00:08:30;;;;;;;0.00;0.00;;;12.60;97.70;;;;;;5089284;28;20199;-61
2023/04/28 00:10:56;;;;;;;0.00;0.00;;;12.50;98.00;;;;;;5090544;28;20741;-62
2023/04/28 00:13:21;;;;;;;0.00;0.00;;;12.60;98.50;;;;;;5090349;28;20214;-61
2023/04/28 00:15:49;;;;;;;0.10;0.10;;;12.60;99.10;;;;;;5090263;28;20618;-62
2023/04/28 00:18:14;;;;;;;0.00;0.00;;;12.60;99.30;;;;;;5090051;28;20230;-61
2023/04/28 00:20:40;;;;;;;0.20;0.20;;;12.50;99.60;;;;;;5090260;28;20188;-61
2023/04/28 00:23:05;;;;;;;0.00;0.00;;;12.50;99.70;;;;;;5089949;28;20306;-61
2023/04/28 00:25:31;;;;;;;0.00;0.00;;;12.50;99.90;;;;;;5089773;28;20208;-61
2023/04/28 00:27:57;;;;;;;0.00;0.00;;;12.50;99.90;;;;;;5090103;28;20192;-61
2023/04/28 00:30:24;;;;;;;0.10;0.10;;;12.50;99.90;;;;;;5090188;28;20639;-61
2023/04/28 00:32:49;;;;;;;0.00;0.00;;;12.40;99.90;;;;;;5090072;28;20718;-61
2023/04/28 00:35:15;;;;;;;0.00;0.00;;;12.40;99.90;;;;;;5089991;28;20276;-61
2023/04/28 00:37:40;;;;;;;0.43;0.43;;;12.40;99.90;;;;;;5089776;28;20195;-61
2023/04/28 00:40:06;;;;;;;0.00;0.00;;;12.40;99.90;;;;;;5092676;28;20180;-61
2023/04/28 00:42:32;;;;;;;0.00;0.00;;;12.40;99.90;;;;;;5093825;28;20262;-61
2023/04/28 00:44:57;;;;;;;0.10;0.10;;;12.40;99.90;;;;;;5092780;28;20583;-61
2023/04/28 00:47:23;;;;;;;0.00;0.00;;;12.40;99.90;;;;;;5093145;28;20179;-61
2023/04/28 00:49:49;;;;;;;0.00;0.00;;;12.40;99.90;;;;;;5093597;28;20670;-61
2023/04/28 00:52:15;;;;;;;0.00;0.00;;;12.40;99.90;;;;;;5093053;28;20182;-61
2023/04/28 00:54:43;;;;;;;0.00;0.00;;;12.40;99.90;;;;;;5093386;28;20168;-61
2023/04/28 00:57:09;;;;;;;0.00;0.00;;;12.40;99.90;;;;;;5093267;28;20549;-61
2023/04/28 00:59:35;;;;;;;0.00;0.00;;;12.40;99.90;;;;;;5083901;28;20176;-61
2023/04/28 01:02:02;;;;;;;0.00;0.00;;;12.40;99.90;;;;;;5092950;28;20658;-62
2023/04/28 01:04:28;;;;;;;0.00;0.00;;;12.40;99.90;;;;;;5093466;28;20232;-62
2023/04/28 01:06:55;;;;;;;0.00;0.00;;;12.30;99.90;;;;;;5093611;28;20199;-61
2023/04/28 01:09:21;;;;;;;0.00;0.00;;;12.30;99.90;;;;;;5092889;28;20187;-61
2023/04/28 01:11:46;;;;;;;0.00;0.00;;;12.20;99.90;;;;;;5093155;28;20199;-61
2023/04/28 01:14:12;;;;;;;0.10;0.10;;;12.10;99.90;;;;;;5092780;28;20639;-62
2023/04/28 01:16:38;;;;;;;0.00;0.00;;;12.10;99.90;;;;;;5093114;28;20509;-62
2023/04/28 01:19:06;;;;;;;0.00;0.00;;;12.10;99.90;;;;;;5092971;28;20791;-62
2023/04/28 01:21:33;;;;;;;0.00;0.00;;;12.00;99.90;;;;;;5072950;28;20628;-61
2023/04/28 01:23:59;;;;;;;0.22;0.22;;;12.00;99.90;;;;;;5072365;28;20239;-62
2023/04/28 01:26:25;;;;;;;0.00;0.00;;;12.00;99.90;;;;;;5086736;28;20210;-61
2023/04/28 01:28:51;;;;;;;0.05;0.05;;;12.10;99.90;;;;;;5092095;28;20172;-62
2023/04/28 01:31:16;;;;;;;0.00;0.00;;;12.00;99.90;;;;;;5092469;28;20184;-61
2023/04/28 01:33:42;;;;;;;0.00;0.00;;;12.00;99.90;;;;;;5092577;28;20187;-62
2023/04/28 01:36:07;;;;;;;0.10;0.10;;;12.00;99.90;;;;;;5092679;28;20208;-62
2023/04/28 01:38:33;;;;;;;0.00;0.00;;;11.90;99.90;;;;;;5092634;28;20180;-62
2023/04/28 01:40:59;;;;;;;0.00;0.00;;;11.90;99.90;;;;;;5092532;28;20680;-62
2023/04/28 01:43:25;;;;;;;0.00;0.00;;;11.90;99.90;;;;;;5092543;28;20225;-62
2023/04/28 01:45:50;;;;;;;0.00;0.00;;;12.00;99.90;;;;;;5092687;28;20822;-62
2023/04/28 01:48:16;;;;;;;0.00;0.00;;;12.00;99.90;;;;;;5092683;28;20172;-62
2023/04/28 01:50:42;;;;;;;0.20;0.20;;;12.00;99.90;;;;;;5092046;28;20176;-62
2023/04/28 01:53:07;;;;;;;0.00;0.00;;;12.00;99.90;;;;;;5092681;28;20229;-62
2023/04/28 01:55:33;;;;;;;0.10;0.10;;;12.10;99.90;;;;;;5092638;28;20213;-61
2023/04/28 01:57:58;;;;;;;0.20;0.20;;;12.10;99.90;;;;;;5092630;28;20168;-61
2023/04/28 02:00:24;;;;;;;0.00;0.00;;;12.10;99.90;;;;;;5092300;28;20291;-61
2023/04/28 02:02:50;;;;;;;0.65;0.38;;;12.10;99.90;;;;;;5092635;28;20164;-61
2023/04/28 02:05:15;;;;;;;0.00;0.00;;;12.10;99.90;;;;;;5092123;28;20208;-61
2023/04/28 02:07:41;;;;;;;0.00;0.00;;;12.10;99.90;;;;;;5092435;28;20180;-61
2023/04/28 02:10:08;;;;;;;0.00;0.00;;;12.10;99.90;;;;;;5092131;28;20631;-61
2023/04/28 02:12:34;;;;;;;0.00;0.00;;;12.10;99.90;;;;;;5092294;28;20410;-61
2023/04/28 02:14:59;;;;;;;0.05;0.05;;;12.10;99.90;;;;;;5092433;28;20168;-61
2023/04/28 02:17:28;;;;;;;0.08;0.08;;;12.00;99.90;;;;;;5092213;28;20172;-61
2023/04/28 02:19:55;;;;;;;0.00;0.00;;;12.00;99.90;;;;;;5092242;28;20194;-61
2023/04/28 02:22:21;;;;;;;0.00;0.00;;;12.00;99.90;;;;;;5092117;28;20251;-61
2023/04/28 02:24:47;;;;;;;0.00;0.00;;;12.10;99.90;;;;;;5091936;28;20326;-61
2023/04/28 02:27:12;;;;;;;0.00;0.00;;;12.10;99.90;;;;;;5091778;28;20708;-61
2023/04/28 02:29:38;;;;;;;0.00;0.00;;;12.10;99.90;;;;;;5091712;28;20184;-62
2023/04/28 02:32:04;;;;;;;0.00;0.00;;;12.00;99.90;;;;;;5091900;28;20180;-61
2023/04/28 02:34:29;;;;;;;0.00;0.00;;;12.00;99.90;;;;;;5091835;28;20180;-61
2023/04/28 02:36:55;;;;;;;0.00;0.00;;;12.00;99.90;;;;;;5091655;28;20217;-61
2023/04/28 02:39:21;;;;;;;0.00;0.00;;;12.00;99.90;;;;;;5091688;28;20289;-61
2023/04/28 02:41:47;;;;;;;0.00;0.00;;;12.00;99.90;;;;;;5091687;28;20248;-61
2023/04/28 02:44:12;;;;;;;0.10;0.10;;;12.00;99.90;;;;;;5091620;28;20726;-61
2023/04/28 02:46:38;;;;;;;0.00;0.00;;;12.10;99.90;;;;;;5091353;28;20234;-61
2023/04/28 02:49:03;;;;;;;0.57;0.25;;;12.10;99.90;;;;;;5091370;28;20172;-61
2023/04/28 02:51:30;;;;;;;0.00;0.00;;;12.00;99.90;;;;;;5091572;28;20658;-61
2023/04/28 02:53:55;;;;;;;0.00;0.00;;;12.10;99.90;;;;;;5091379;28;20191;-61
2023/04/28 02:56:21;;;;;;;0.00;0.00;;;12.10;99.90;;;;;;5091335;28;20619;-61
2023/04/28 02:58:46;;;;;;;0.00;0.00;;;12.10;99.90;;;;;;5091532;28;20176;-62
2023/04/28 03:01:12;;;;;;;0.00;0.00;;;12.10;99.90;;;;;;5091427;28;20168;-62
2023/04/28 03:03:37;;;;;;;0.00;0.00;;;12.00;99.90;;;;;;5090645;28;20635;-62
2023/04/28 03:06:03;;;;;;;0.52;0.45;;;12.10;99.90;;;;;;5091337;28;20666;-62
2023/04/28 03:08:28;;;;;;;0.00;0.00;;;12.10;99.90;;;;;;5091421;28;20184;-61
2023/04/28 03:10:54;;;;;;;0.30;0.30;;;12.10;99.90;;;;;;5091338;28;20278;-62
2023/04/28 03:13:20;;;;;;;0.00;0.00;;;12.00;99.90;;;;;;5091332;28;20187;-61
2023/04/28 03:15:45;;;;;;;0.00;0.00;;;12.00;99.90;;;;;;5091366;28;20217;-61
2023/04/28 03:18:11;;;;;;;0.00;0.00;;;12.00;99.90;;;;;;5090541;28;20172;-63
2023/04/28 03:20:36;;;;;;;0.00;0.00;;;12.00;99.90;;;;;;5089897;28;20579;-63
2023/04/28 03:23:02;;;;;;;0.00;0.00;;;12.00;99.90;;;;;;5090807;28;20237;-62
2023/04/28 03:25:28;;;;;;;0.00;0.00;;;12.00;99.90;;;;;;5091056;28;20204;-61
2023/04/28 03:27:53;;;;;;;0.00;0.00;;;11.90;99.90;;;;;;5090814;28;20275;-63
2023/04/28 03:30:19;;;;;;;0.10;0.10;;;11.90;99.90;;;;;;5090490;28;20197;-61
2023/04/28 03:32:44;;;;;;;0.00;0.00;;;11.90;99.90;;;;;;5090417;28;20190;-62
2023/04/28 03:35:10;;;;;;;0.00;0.00;;;11.90;99.90;;;;;;5090690;28;20228;-60
2023/04/28 03:37:35;;;;;;;0.00;0.00;;;11.90;99.90;;;;;;5090637;28;20539;-60
2023/04/28 03:40:02;;;;;;;0.00;0.00;;;11.90;99.90;;;;;;5090309;28;20754;-60
2023/04/28 03:42:27;;;;;;;0.00;0.00;;;11.90;99.90;;;;;;5090261;28;20183;-62
2023/04/28 03:44:53;;;;;;;0.00;0.00;;;11.90;99.90;;;;;;5089821;28;20175;-60
2023/04/28 03:47:18;;;;;;;0.00;0.00;;;11.90;99.90;;;;;;5090215;28;20690;-60
2023/04/28 03:49:44;;;;;;;0.00;0.00;;;11.90;99.90;;;;;;5090401;28;20249;-63
2023/04/28 03:52:09;;;;;;;0.00;0.00;;;12.00;99.90;;;;;;5089748;28;20293;-63
2023/04/28 03:54:35;;;;;;;0.00;0.00;;;12.00;99.90;;;;;;5090130;28;20172;-64
2023/04/28 03:57:01;;;;;;;0.10;0.10;;;11.90;99.90;;;;;;5090264;28;20180;-63
2023/04/28 03:59:26;;;;;;;0.10;0.10;;;12.00;99.90;;;;;;5090640;28;20176;-60
2023/04/28 04:01:52;;;;;;;0.10;0.10;;;12.00;99.90;;;;;;5089620;28;20271;-61
2023/04/28 04:04:17;;;;;;;0.00;0.00;;;11.90;99.90;;;;;;5090192;28;20180;-64
2023/04/28 04:06:43;;;;;;;0.00;0.00;;;11.80;99.90;;;;;;5090320;28;20272;-63
2023/04/28 04:09:09;;;;;;;0.00;0.00;;;11.80;99.90;;;;;;5089506;28;20202;-63
2023/04/28 04:11:34;;;;;;;0.00;0.00;;;11.80;99.90;;;;;;5090337;28;20184;-63
2023/04/28 04:14:00;;;;;;;0.00;0.00;;;11.80;99.90;;;;;;5091345;28;20188;-63
2023/04/28 04:16:25;;;;;;;0.10;0.10;;;11.80;99.90;;;;;;5094094;28;20503;-63
2023/04/28 04:18:51;;;;;;;0.00;0.00;;;11.80;99.90;;;;;;5094474;28;20176;-63
2023/04/28 04:21:16;;;;;;;0.00;0.00;;;11.80;99.90;;;;;;5093882;28;20207;-63
2023/04/28 04:23:42;;;;;;;0.00;0.00;;;11.90;99.90;;;;;;5094076;28;20796;-63
2023/04/28 04:26:07;;;;;;;0.00;0.00;;;11.90;99.90;;;;;;5094216;28;20240;-63
2023/04/28 04:28:33;;;;;;;0.13;0.13;;;12.00;99.90;;;;;;5094328;28;20187;-63
2023/04/28 04:30:58;;;;;;;0.00;0.00;;;12.00;99.90;;;;;;5094231;28;20543;-63
2023/04/28 04:33:24;;;;;;;0.00;0.00;;;12.00;99.90;;;;;;5094206;28;20649;-63
2023/04/28 04:35:50;;;;;;;0.00;0.00;;;12.00;99.90;;;;;;5094369;28;20176;-63
2023/04/28 04:38:15;;;;;;;0.55;0.55;;;12.00;99.90;;;;;;5093935;28;20180;-63
2023/04/28 04:40:41;;;;;;;0.00;0.00;;;12.00;99.90;;;;;;5073597;28;20185;-63
2023/04/28 04:43:06;;;;;;;0.03;0.03;;;12.00;99.90;;;;;;5073667;28;20173;-63
2023/04/28 04:45:32;;;;;;;0.08;0.08;;;12.00;99.90;;;;;;5073721;28;20292;-63
2023/04/28 04:47:58;;;;;;;0.00;0.00;;;12.00;99.90;;;;;;5073581;28;20181;-63
2023/04/28 04:50:24;;;;;;;0.00;0.00;;;12.00;99.90;;;;;;5073481;28;20181;-64
2023/04/28 04:52:49;;;;;;;0.00;0.00;;;12.00;99.90;;;;;;5093493;28;20537;-64
2023/04/28 04:55:15;;;;;;;0.00;0.00;;;12.00;99.90;;;;;;5093662;28;20176;-63
2023/04/28 04:57:41;;;;;;;0.00;0.00;;;12.00;99.90;;;;;;5093314;28;20221;-63
2023/04/28 05:00:07;;;;;;;0.00;0.00;;;12.00;99.90;;;;;;5093137;28;20549;-63
2023/04/28 05:02:33;;;;;;;0.00;0.00;;;12.10;99.90;;;;;;5093419;28;20175;-63
2023/04/28 05:04:58;;;;;;;0.00;0.00;;;12.10;99.90;;;;;;5093041;28;20180;-63
2023/04/28 05:07:25;;;;;;;0.00;0.00;;;12.10;99.90;;;;;;5075033;28;20216;-63
2023/04/28 05:09:51;;;;;;;0.00;0.00;;;12.10;99.90;;;;;;5093296;28;20172;-63
2023/04/28 05:12:16;;;;;;;0.00;0.00;;;12.10;99.90;;;;;;5093089;28;20168;-63
2023/04/28 05:14:42;;;;;;;0.10;0.10;;;12.10;99.90;;;;;;5093046;28;20183;-63
2023/04/28 05:17:07;;;;;;;0.25;0.25;;;12.10;99.90;;;;;;5093124;28;20183;-63
2023/04/28 05:19:33;;;;;;;0.08;0.08;;;12.10;99.90;;;;;;5092939;28;20639;-63
2023/04/28 05:21:59;;;;;;;0.10;0.10;;;12.10;99.90;;;;;;5092807;28;20272;-63
2023/04/28 05:24:25;;;;;;;0.00;0.00;;;12.10;99.90;;;;;;5092707;28;20227;-63
2023/04/28 05:26:51;;;;;;;0.00;0.00;;;12.20;99.90;;;;;;5092111;28;20231;-62
2023/04/28 05:29:17;;;;;;;0.00;0.00;;;12.20;99.90;;;;;;5092877;28;20172;-63
2023/04/28 05:31:42;;;;;;;0.10;0.10;;;12.20;99.90;;;;;;5092574;28;20509;-63
2023/04/28 05:34:08;;;;;;;0.00;0.00;;;12.20;99.90;;;;;;5092849;28;20627;-63
2023/04/28 05:36:33;;;;;;;0.00;0.00;;;12.20;99.90;;;;;;5092878;28;20199;-63
2023/04/28 05:38:59;;;;;;;0.00;0.00;;;12.20;99.90;;;;;;5092519;28;20608;-64
2023/04/28 05:41:25;;;;;;;0.00;0.00;;;12.20;99.90;;;;;;5092614;28;20172;-63
2023/04/28 05:43:50;;;;;;;0.00;0.00;;;12.20;99.90;;;;;;5092578;28;20164;-63
2023/04/28 05:46:16;;;;;;;0.00;0.00;;;12.30;99.90;;;;;;5092394;28;20257;-63
2023/04/28 05:48:42;;;;;;;0.13;0.13;;;12.30;99.90;;;;;;5092402;28;20183;-63
2023/04/28 05:51:07;;;;;;;0.20;0.20;;;12.30;99.90;;;;;;5092432;28;20172;-63
2023/04/28 05:53:33;;;;;;;0.00;0.00;;;12.30;99.90;;;;;;5092398;28;20225;-63
2023/04/28 05:55:58;;;;;;;0.00;0.00;;;12.30;99.90;;;;;;5091007;28;20180;-63
2023/04/28 05:58:24;;;;;;;0.00;0.00;;;12.40;99.90;;;;;;5092453;28;20214;-64
2023/04/28 06:00:50;;;;;;;0.10;0.10;;;12.40;99.90;;;;;;5092344;28;20176;-63
2023/04/28 06:03:17;;;;;;;0.28;0.28;;;12.40;99.90;;;;;;5092013;28;20171;-63
2023/04/28 06:05:43;;;;;;;0.00;0.00;;;12.40;99.90;;;;;;5092476;28;20216;-63
2023/04/28 06:08:09;;;;;;;0.00;0.00;;;12.40;99.90;;;;;;5092362;28;20183;-63
2023/04/28 06:10:34;;;;;;;0.00;0.00;;;12.40;99.90;;;;;;5092210;28;20180;-63
2023/04/28 06:13:01;;;;;;;0.00;0.00;;;12.50;99.90;;;;;;5092118;28;20184;-63
2023/04/28 06:15:26;;;;;;;0.00;0.00;;;12.50;99.90;;;;;;5091929;28;20546;-64
2023/04/28 06:17:52;;;;;;;0.00;0.00;;;12.50;99.90;;;;;;5091948;28;20164;-63
2023/04/28 06:20:19;;;;;;;0.00;0.00;;;12.50;99.90;;;;;;5091913;28;20184;-64
2023/04/28 06:22:45;;;;;;;0.00;0.00;;;12.50;99.90;;;;;;5091847;28;20263;-64
2023/04/28 06:25:10;;;;;;;0.20;0.15;;;12.40;99.90;;;;;;5091824;28;20370;-63
2023/04/28 06:27:36;;;;;;;0.03;0.03;;;12.40;99.90;;;;;;5091924;28;20212;-64
2023/04/28 06:30:01;;;;;;;0.00;0.00;;;12.40;99.90;;;;;;5091969;28;20183;-63
2023/04/28 06:32:27;;;;;;;0.20;0.20;;;12.40;99.90;;;;;;5091962;28;20194;-63
2023/04/28 06:34:52;;;;;;;0.00;0.00;;;12.30;99.90;;;;;;5091845;28;20659;-63
2023/04/28 06:37:18;;;;;;;0.00;0.00;;;12.30;99.90;;;;;;5091665;28;20217;-63
2023/04/28 06:39:43;;;;;;;0.00;0.00;;;12.30;99.90;;;;;;5091899;28;20539;-64
2023/04/28 06:42:09;;;;;;;0.00;0.00;;;12.30;99.90;;;;;;5091783;28;20168;-64
2023/04/28 06:44:34;;;;;;;0.00;0.00;;;12.20;99.90;;;;;;5091565;28;20172;-64
2023/04/28 06:47:00;;;;;;;0.00;0.00;;;12.20;99.90;;;;;;5091571;28;20246;-64
2023/04/28 06:49:26;;;;;;;0.00;0.00;;;12.20;99.90;;;;;;5090659;28;20226;-63
2023/04/28 06:51:51;;;;;;;0.00;0.00;;;12.20;99.90;;;;;;5091481;28;20176;-64
2023/04/28 06:54:17;;;;;;;0.00;0.00;;;12.20;99.90;;;;;;5091391;28;20180;-63
2023/04/28 06:56:42;;;;;;;0.00;0.00;;;12.20;99.90;;;;;;5091502;28;20211;-64
2023/04/28 06:59:08;;;;;;;0.00;0.00;;;12.30;99.90;;;;;;5091378;28;20229;-63
2023/04/28 07:01:33;;;;;;;0.03;0.03;;;12.30;99.90;;;;;;5091326;28;20184;-63
2023/04/28 07:03:59;;;;;;;0.00;0.00;;;12.30;99.90;;;;;;5091457;28;20245;-64
2023/04/28 07:06:26;;;;;;;0.00;0.00;;;12.30;99.90;;;;;;5091303;28;20662;-64
2023/04/28 07:08:52;;;;;;;0.00;0.00;;;12.30;99.90;;;;;;5091161;28;20184;-65
2023/04/28 07:11:17;;;;;;;0.00;0.00;;;12.30;99.90;;;;;;5091171;28;20541;-63
2023/04/28 07:13:45;;;;;;;0.00;0.00;;;12.20;99.90;;;;;;5091166;28;20286;-63
2023/04/28 07:16:10;;;;;;;0.00;0.00;;;12.20;99.90;;;;;;5091011;28;20172;-63
2023/04/28 07:18:36;;;;;;;0.20;0.08;;;12.20;99.90;;;;;;5091108;28;20176;-63
2023/04/28 07:21:01;;;;;;;0.00;0.00;;;12.20;99.90;;;;;;5090927;28;20178;-63
2023/04/28 07:23:27;;;;;;;0.22;0.10;;;12.20;99.90;;;;;;5090850;28;20227;-63
2023/04/28 07:25:53;;;;;;;0.00;0.00;;;12.20;99.90;;;;;;5090789;28;20643;-63
2023/04/28 07:28:19;;;;;;;0.00;0.00;;;12.20;99.90;;;;;;5090709;28;20191;-63
2023/04/28 07:30:44;;;;;;;0.00;0.00;;;12.20;99.90;;;;;;5090939;28;20176;-64
2023/04/28 07:33:10;;;;;;;0.00;0.00;;;12.20;99.90;;;;;;5090803;28;20179;-64
2023/04/28 07:35:35;;;;;;;0.00;0.00;;;12.20;99.90;;;;;;5090950;28;20173;-64
2023/04/28 07:38:01;;;;;;;0.00;0.00;;;12.20;99.90;;;;;;5091079;28;20183;-64
2023/04/28 07:40:27;;;;;;;0.00;0.00;;;12.20;99.90;;;;;;5090768;28;20607;-64
2023/04/28 07:42:53;;;;;;;0.00;0.00;;;12.30;99.90;;;;;;5090706;28;20229;-63
2023/04/28 07:45:19;;;;;;;0.00;0.00;;;12.30;99.90;;;;;;5090749;28;20635;-64
2023/04/28 07:47:44;;;;;;;0.00;0.00;;;12.30;99.90;;;;;;5090880;28;20688;-64
2023/04/28 07:50:11;;;;;;;0.00;0.00;;;12.30;99.90;;;;;;5090490;28;20177;-64
2023/04/28 07:52:36;;;;;;;0.00;0.00;;;12.40;99.90;;;;;;5090977;28;20176;-64
2023/04/28 07:55:03;;;;;;;0.00;0.00;;;12.30;99.90;;;;;;5090999;28;20172;-63
2023/04/28 07:57:29;;;;;;;0.00;0.00;;;12.40;99.90;;;;;;5090861;28;20186;-64
2023/04/28 07:59:55;;;;;;;0.00;0.00;;;12.40;99.90;;;;;;5090886;28;20210;-63
2023/04/28 08:02:20;;;;;;;0.57;0.25;;;12.40;99.90;;;;;;5090889;28;20600;-64
2023/04/28 08:04:46;;;;;;;0.00;0.00;;;12.50;99.90;;;;;;5090963;28;20172;-63
2023/04/28 08:07:12;;;;;;;0.28;0.28;;;12.50;99.90;;;;;;5090526;28;20286;-64
2023/04/28 08:09:40;;;;;;;0.03;0.03;;;12.50;99.90;;;;;;5090898;28;20211;-64
2023/04/28 08:12:06;;;;;;;0.00;0.00;;;12.60;99.90;;;;;;5090729;28;20184;-63
2023/04/28 08:14:31;;;;;;;0.00;0.00;;;12.70;99.90;;;;;;5090590;28;20232;-63
2023/04/28 08:16:57;;;;;;;0.00;0.00;;;12.90;99.90;;;;;;5090838;28;20168;-63
2023/04/28 08:19:23;;;;;;;0.00;0.00;;;13.00;99.90;;;;;;5090735;28;20172;-64
2023/04/28 08:21:48;;;;;;;0.00;0.00;;;13.00;99.90;;;;;;5090816;28;20173;-64
2023/04/28 08:24:14;;;;;;;1.88;1.35;;;13.10;99.90;;;;;;5090341;28;20230;-64
2023/04/28 08:26:40;;;;;;;0.00;0.00;;;13.10;99.90;;;;;;5090628;28;20302;-64
2023/04/28 08:29:05;;;;;;;0.10;0.10;;;13.20;99.90;;;;;;5090611;28;20176;-64
2023/04/28 08:31:31;;;;;;;0.00;0.00;;;13.20;99.90;;;;;;5090702;28;20176;-64
2023/04/28 08:33:56;;;;;;;0.00;0.00;;;13.20;99.90;;;;;;5090659;28;20168;-64
2023/04/28 08:36:30;;;;;;;0.10;0.10;;;13.20;99.90;;;;;;5090525;28;20658;-64
2023/04/28 08:38:58;;;;;;;0.00;0.00;;;13.30;99.90;;;;;;5090508;28;20639;-64
2023/04/28 08:41:26;;;;;;;0.00;0.00;;;13.40;99.90;;;;;;5090535;28;20754;-63
2023/04/28 08:43:52;;;;;;;0.00;0.00;;;13.50;99.90;;;;;;5090417;28;20621;-64
2023/04/28 08:46:20;;;;;;;0.00;0.00;;;13.50;99.90;;;;;;5089061;28;20220;-64
2023/04/28 08:48:48;;;;;;;0.00;0.00;;;13.60;99.90;;;;;;5090513;28;20173;-64
2023/04/28 08:51:17;;;;;;;0.08;0.08;;;13.60;99.90;;;;;;5090069;28;20630;-64
2023/04/28 08:53:50;;;;;;;0.00;0.00;;;13.60;99.90;;;;;;5090424;28;20254;-64
2023/04/28 08:56:17;;;;;;;0.00;0.00;;;13.60;99.90;;;;;;5090249;28;20165;-64
2023/04/28 08:58:43;;;;;;;0.00;0.00;;;13.70;99.90;;;;;;5090316;28;20255;-64
2023/04/28 09:01:08;;;;;;;0.00;0.00;;;13.70;99.90;;;;;;5091358;28;20643;-64
2023/04/28 09:03:34;;;;;;;0.20;0.13;;;13.80;99.90;;;;;;5093895;28;20180;-64
2023/04/28 09:06:01;;;;;;;0.00;0.00;;;13.70;99.90;;;;;;5093837;28;20324;-64
2023/04/28 09:08:26;;;;;;;0.03;0.03;;;13.70;99.90;;;;;;5093844;28;20249;-63
2023/04/28 09:11:09;;;;;;;0.10;0.10;;;13.70;99.90;;;;;;5093770;28;20226;-63
2023/04/28 09:13:35;;;;;;;0.00;0.00;;;13.60;99.90;;;;;;5093720;28;20172;-64
2023/04/28 09:16:02;;;;;;;0.00;0.00;;;13.60;99.90;;;;;;5093756;28;20168;-63
2023/04/28 09:18:32;;;;;;;0.00;0.00;;;13.70;99.90;;;;;;5093667;28;20631;-63
2023/04/28 09:21:10;;;;;;;0.00;0.00;;;13.80;99.90;;;;;;5093731;28;20531;-63
2023/04/28 09:23:49;;;;;;;0.00;0.00;;;14.00;99.90;;;;;;5093375;28;20303;-63
2023/04/28 09:26:15;;;;;;;0.00;0.00;;;14.10;99.90;;;;;;5093309;28;20260;-63
2023/04/28 09:28:40;;;;;;;0.10;0.10;;;14.20;99.90;;;;;;5093346;28;20184;-63
2023/04/28 09:31:21;;;;;;;0.00;0.00;;;14.20;99.90;;;;;;5093430;28;20262;-63
2023/04/28 09:33:57;;;;;;;0.00;0.00;;;14.40;99.90;;;;;;5093426;28;20180;-63
2023/04/28 09:36:29;;;;;;;0.00;0.00;;;14.70;99.90;;;;;;5093292;28;20183;-63
2023/04/28 09:38:59;;;;;;;0.00;0.00;;;14.90;99.90;;;;;;5093160;28;20198;-63
2023/04/28 09:41:52;;;;;;;0.00;0.00;;;14.90;99.90;;;;;;5093549;28;20643;-63
2023/04/28 09:44:22;;;;;;;0.00;0.00;;;14.90;99.90;;;;;;5091828;28;20264;-63
2023/04/28 09:46:49;;;;;;;0.00;0.00;;;15.00;99.90;;;;;;5093073;28;20215;-63
2023/04/28 09:49:14;;;;;;;0.00;0.00;;;15.20;99.90;;;;;;5092903;28;20661;-63
2023/04/28 09:51:40;;;;;;;0.00;0.00;;;15.40;99.90;;;;;;5093041;28;20188;-63
2023/04/28 09:54:06;;;;;;;0.00;0.00;;;15.50;99.90;;;;;;5092891;28;20265;-63
2023/04/28 09:56:37;;;;;;;0.00;0.00;;;15.50;99.90;;;;;;5092874;28;20635;-63
2023/04/28 09:59:02;;;;;;;0.00;0.00;;;15.60;99.90;;;;;;5092858;28;20180;-63
2023/04/28 10:01:35;;;;;;;0.00;0.00;;;15.70;99.90;;;;;;5092768;28;20183;-63
2023/04/28 10:04:03;;;;;;;0.10;0.10;;;15.70;99.90;;;;;;5092903;28;20172;-63
2023/04/28 10:06:29;;;;;;;0.00;0.00;;;15.80;99.90;;;;;;5092545;28;20216;-63
2023/04/28 10:08:56;;;;;;;0.00;0.00;;;15.80;99.90;;;;;;5092665;28;20173;-63
2023/04/28 10:11:24;;;;;;;0.00;0.00;;;15.80;99.90;;;;;;5092494;28;20183;-63
2023/04/28 10:13:50;;;;;;;0.00;0.00;;;15.70;99.90;;;;;;5092709;28;20169;-63
2023/04/28 10:16:16;;;;;;;0.00;0.00;;;15.70;99.90;;;;;;5092375;28;20234;-62
2023/04/28 10:18:43;;;;;;;0.00;0.00;;;15.70;99.90;;;;;;5092516;28;20251;-63
2023/04/28 10:21:11;;;;;;;0.00;0.00;;;15.60;99.90;;;;;;5092343;28;20176;-62
2023/04/28 10:24:07;;;;;;;0.00;0.00;;;15.60;99.90;;;;;;5092327;28;20220;-62
2023/04/28 10:27:02;;;;;;;0.00;0.00;;;15.60;99.90;;;;;;5092210;28;20310;-63
2023/04/28 10:29:30;;;;;;;0.00;0.00;;;15.60;99.90;;;;;;5092378;28;20597;-62
2023/04/28 10:32:19;;;;;;;0.00;0.00;;;15.60;99.90;;;;;;5092139;28;20528;-63
2023/04/28 10:34:47;;;;;;;0.00;0.00;;;15.60;99.90;;;;;;5092272;28;20255;-63
2023/04/28 10:37:17;;;;;;;0.00;0.00;;;15.70;99.90;;;;;;5092012;28;20199;-63
2023/04/28 10:40:20;;;;;;;0.00;0.00;;;15.70;99.90;;;;;;5092105;28;20202;-62
2023/04/28 10:42:55;;;;;;;0.00;0.00;;;15.80;99.90;;;;;;5092009;28;20164;-63
2023/04/28 10:45:52;;;;;;;0.00;0.00;;;15.70;99.90;;;;;;5091853;28;20651;-63
2023/04/28 10:48:40;;;;;;;0.00;0.00;;;15.70;99.90;;;;;;5091925;28;20192;-62
2023/04/28 10:51:06;;;;;;;0.00;0.00;;;15.60;99.90;;;;;;5079232;28;20585;-63
2023/04/28 10:53:44;;;;;;;0.00;0.00;;;15.60;99.90;;;;;;5091802;28;20218;-63
2023/04/28 10:56:10;;;;;;;0.03;0.03;;;15.50;99.90;;;;;;5091697;28;20176;-63
2023/04/28 10:58:36;;;;;;;0.08;0.08;;;15.40;99.90;;;;;;5091605;28;20232;-63
2023/04/28 11:01:20;;;;;;;0.00;0.00;;;15.30;99.90;;;;;;5091720;28;20229;-64
2023/04/28 11:03:49;;;;;;;0.00;0.00;;;15.30;99.90;;;;;;5091766;28;20179;-63
2023/04/28 11:06:24;;;;;;;0.15;0.15;;;15.20;99.90;;;;;;5091378;28;20666;-63
2023/04/28 11:08:50;;;;;;;0.00;0.00;;;15.10;99.90;;;;;;5091606;28;20183;-63
2023/04/28 11:11:20;;;;;;;0.00;0.00;;;15.10;99.90;;;;;;5091231;28;20548;-63
2023/04/28 11:13:47;;;;;;;0.00;0.00;;;15.10;99.90;;;;;;5091506;28;20237;-64
2023/04/28 11:16:20;;;;;;;0.08;0.08;;;15.20;99.90;;;;;;5091374;28;20168;-63
2023/04/28 11:18:54;;;;;;;0.00;0.00;;;15.20;99.90;;;;;;5091515;28;20176;-63
2023/04/28 11:21:22;;;;;;;0.00;0.00;;;15.30;99.90;;;;;;5091306;28;20176;-64
2023/04/28 11:23:48;;;;;;;0.00;0.00;;;15.40;99.90;;;;;;5090235;28;20640;-64
2023/04/28 11:26:14;;;;;;;0.00;0.00;;;15.60;99.90;;;;;;5091077;28;20208;-63
2023/04/28 11:28:53;;;;;;;0.00;0.00;;;15.90;99.90;;;;;;5091243;28;20631;-63
2023/04/28 11:31:22;;;;;;;0.00;0.00;;;16.00;99.90;;;;;;5091292;28;20519;-63
2023/04/28 11:33:55;;;;;;;0.05;0.05;;;16.10;99.90;;;;;;5091146;28;20181;-63
2023/04/28 11:36:26;;;;;;;0.00;0.00;;;16.10;99.90;;;;;;5091143;28;20183;-63
2023/04/28 11:38:52;;;;;;;0.00;0.00;;;16.20;99.90;;;;;;5091128;28;20271;-63
2023/04/28 11:41:18;;;;;;;0.00;0.00;;;16.20;99.90;;;;;;5091159;28;20728;-63
2023/04/28 11:43:43;;;;;;;0.00;0.00;;;16.30;99.90;;;;;;5091135;28;20168;-63
2023/04/28 11:46:09;;;;;;;0.00;0.00;;;16.30;99.90;;;;;;5091098;28;20288;-63
2023/04/28 11:48:35;;;;;;;0.00;0.00;;;16.40;99.90;;;;;;5090982;28;20199;-63
2023/04/28 11:51:00;;;;;;;0.20;0.20;;;16.50;99.90;;;;;;5091079;28;20293;-64
2023/04/28 11:53:45;;;;;;;0.10;0.10;;;16.60;99.90;;;;;;5090941;28;20169;-63
2023/04/28 11:56:12;;;;;;;0.00;0.00;;;16.60;99.90;;;;;;5090859;28;20183;-62
2023/04/28 11:58:38;;;;;;;0.00;0.00;;;16.70;99.90;;;;;;5091018;28;20856;-63
2023/04/28 12:01:08;;;;;;;0.00;0.00;;;16.70;99.90;;;;;;5090944;28;20175;-62
2023/04/28 12:03:46;;;;;;;0.00;0.00;;;16.60;99.90;;;;;;5090867;28;20179;-62
2023/04/28 12:06:19;;;;;;;0.00;0.00;;;16.50;99.90;;;;;;5090702;28;20257;-63
2023/04/28 12:08:45;;;;;;;0.00;0.00;;;16.30;99.90;;;;;;5090959;28;20174;-63
2023/04/28 12:11:12;;;;;;;0.00;0.00;;;16.20;99.90;;;;;;5089514;28;20180;-63
2023/04/28 12:13:38;;;;;;;0.00;0.00;;;16.00;99.90;;;;;;5090783;28;20180;-64
2023/04/28 12:16:05;;;;;;;0.10;0.10;;;15.90;99.90;;;;;;5090804;28;20216;-63
2023/04/28 12:18:31;;;;;;;0.10;0.10;;;15.80;99.90;;;;;;5089455;28;20183;-63
2023/04/28 12:20:57;;;;;;;0.00;0.00;;;15.80;99.90;;;;;;5090757;28;20187;-63
2023/04/28 12:23:32;;;;;;;0.00;0.00;;;15.70;99.90;;;;;;5090412;28;20223;-63
2023/04/28 12:25:59;;;;;;;0.00;0.00;;;15.70;99.90;;;;;;5090555;28;20207;-63
2023/04/28 12:28:40;;;;;;;0.00;0.00;;;15.70;99.90;;;;;;5090445;28;20195;-62
2023/04/28 12:31:07;;;;;;;0.00;0.00;;;15.70;99.90;;;;;;5090521;28;20643;-62
2023/04/28 12:33:36;;;;;;;0.00;0.00;;;15.90;99.90;;;;;;5090705;28;20183;-63
2023/04/28 12:36:03;;;;;;;0.00;0.00;;;16.10;99.90;;;;;;5093328;28;20605;-63
2023/04/28 12:38:29;;;;;;;0.00;0.00;;;16.20;99.90;;;;;;5094479;28;20172;-63
2023/04/28 12:40:55;;;;;;;0.00;0.00;;;16.40;99.90;;;;;;5094416;28;20245;-62
2023/04/28 12:43:22;;;;;;;0.00;0.00;;;16.80;99.90;;;;;;5094340;28;20180;-63
2023/04/28 12:45:53;;;;;;;0.00;0.00;;;17.00;99.90;;;;;;5094411;28;20212;-63
2023/04/28 12:48:18;;;;;;;0.00;0.00;;;17.10;99.90;;;;;;5094228;28;20180;-63